MZU weather

Muzaffarpur Airport
Bihar, India

Public forecast

Using degrees Celsius for public forecast. Weather courtesy of forecast.io.

Closest aviation weather report (METAR) to Muzaffarpur Airport

Closest report is Lok Nayak Jayaprakash Airport, 34.0 nm (62.9 km) SSW. Retrieved 2020/01/26 07:30 UTC (12 minutes ago):

VEPT 260730Z 32004KT 2000 BR SCT100 BKN100 18/13 Q1014 NOSIG

Closest aviation forecast (TAF) to Muzaffarpur Airport

Closest forecast is Lok Nayak Jayaprakash Airport, 34.0 nm (62.9 km) SSW. Retrieved 2020/01/26 06:00 UTC (2 hours ago):

TAF VEPT 260500Z 2606/2712 00000KT 1800 BR HZ NSC BECMG 2609/2611 27004KT 3200 HZ BECMG 2612/2614 2200 BR HZ BECMG 2623/2701 00000KT 1200 MIFG BR BECMG 2704/2706 28004KT 2200 BR HZ BECMG 2708/2710 4000 HZ